RUK879F EGHH-EGPH
Flight info
| Callsign | RUK879F |
|---|---|
| Flight time | N/A |
| Altitude | 23000 |
| Route | SAM Q41 SILVA/N0453F320 UM605 DTY UY53 SAPCO UN57 POL UN601 RIBEL DCT INPIP |
| Aircraft | B738/M-SDE2E3FGHIRWXY/LB1 |
Departure
| Time | N/A |
|---|---|
| Airport | Bournemouth Airport (EGHH) |
Arrival
| Time | 2026-04-22 09:41 |
|---|---|
| Airport | Edinburgh Airport (EGPH) |
| Time | Latitude | Longitude | Altitude | Speed | Heading |
|---|---|---|---|---|---|
| 2026-04-22 09:22 | 54.57268 | -2.67859 | 32481 ft | 438 kts | 334° |
| 2026-04-22 09:23 | 54.62840 | -2.71808 | 31951 ft | 426 kts | 334° |
| 2026-04-22 09:23 | 54.65585 | -2.73759 | 31180 ft | 427 kts | 334° |
| 2026-04-22 09:23 | 54.67449 | -2.75089 | 30584 ft | 430 kts | 334° |
| 2026-04-22 09:23 | 54.70228 | -2.77076 | 29480 ft | 434 kts | 334° |
| 2026-04-22 09:24 | 54.73036 | -2.79090 | 28273 ft | 441 kts | 334° |
| 2026-04-22 09:24 | 54.75895 | -2.81140 | 26995 ft | 450 kts | 335° |
| 2026-04-22 09:24 | 54.78752 | -2.83181 | 26723 ft | 438 kts | 335° |
| 2026-04-22 09:24 | 54.81592 | -2.85213 | 26609 ft | 447 kts | 335° |
| 2026-04-22 09:25 | 54.84467 | -2.87278 | 26528 ft | 457 kts | 335° |
| 2026-04-22 09:25 | 54.87422 | -2.89404 | 26489 ft | 462 kts | 335° |
| 2026-04-22 09:25 | 54.90396 | -2.91549 | 26480 ft | 461 kts | 335° |
| 2026-04-22 09:25 | 54.93355 | -2.93692 | 26483 ft | 460 kts | 335° |
| 2026-04-22 09:26 | 54.96295 | -2.95827 | 26465 ft | 453 kts | 335° |
| 2026-04-22 09:26 | 54.99131 | -2.97886 | 26320 ft | 429 kts | 335° |
| 2026-04-22 09:26 | 55.01805 | -2.99829 | 26181 ft | 406 kts | 334° |
| 2026-04-22 09:26 | 55.04279 | -3.01632 | 26070 ft | 386 kts | 334° |
| 2026-04-22 09:27 | 55.06699 | -3.03398 | 25949 ft | 368 kts | 334° |
| 2026-04-22 09:27 | 55.09011 | -3.05092 | 25751 ft | 354 kts | 334° |
| 2026-04-22 09:27 | 55.11265 | -3.06745 | 25266 ft | 350 kts | 335° |
| 2026-04-22 09:27 | 55.13520 | -3.08402 | 24592 ft | 353 kts | 334° |
| 2026-04-22 09:28 | 55.15801 | -3.10079 | 23816 ft | 359 kts | 335° |
| 2026-04-22 09:28 | 55.18107 | -3.11770 | 23152 ft | 359 kts | 336° |
| 2026-04-22 09:28 | 55.20389 | -3.13441 | 22684 ft | 353 kts | 335° |
| 2026-04-22 09:28 | 55.22672 | -3.15116 | 21869 ft | 358 kts | 336° |
| 2026-04-22 09:29 | 55.24984 | -3.16816 | 21155 ft | 361 kts | 336° |
| 2026-04-22 09:29 | 55.27305 | -3.18525 | 20477 ft | 363 kts | 336° |
| 2026-04-22 09:29 | 55.29631 | -3.20244 | 19811 ft | 363 kts | 336° |
| 2026-04-22 09:29 | 55.31890 | -3.22235 | 19149 ft | 363 kts | 329° |
| 2026-04-22 09:30 | 55.34051 | -3.24531 | 18471 ft | 364 kts | 326° |
| 2026-04-22 09:30 | 55.36188 | -3.26924 | 17741 ft | 364 kts | 326° |
| 2026-04-22 09:30 | 55.38321 | -3.29322 | 17030 ft | 363 kts | 326° |
| 2026-04-22 09:30 | 55.40451 | -3.31696 | 16330 ft | 363 kts | 327° |
| 2026-04-22 09:31 | 55.42589 | -3.34054 | 15658 ft | 362 kts | 328° |
| 2026-04-22 09:31 | 55.44704 | -3.36366 | 14996 ft | 361 kts | 328° |
| 2026-04-22 09:31 | 55.46839 | -3.38691 | 14347 ft | 360 kts | 328° |
| 2026-04-22 09:31 | 55.48963 | -3.40998 | 13611 ft | 358 kts | 328° |
| 2026-04-22 09:32 | 55.51080 | -3.43296 | 12902 ft | 356 kts | 328° |
| 2026-04-22 09:32 | 55.53189 | -3.45587 | 12220 ft | 355 kts | 329° |
| 2026-04-22 09:32 | 55.55285 | -3.47866 | 11528 ft | 353 kts | 329° |
| 2026-04-22 09:32 | 55.57375 | -3.50146 | 10855 ft | 351 kts | 329° |
| 2026-04-22 09:33 | 55.59444 | -3.52404 | 10186 ft | 349 kts | 329° |
| 2026-04-22 09:33 | 55.61507 | -3.54653 | 9468 ft | 347 kts | 329° |
| 2026-04-22 09:33 | 55.63555 | -3.56889 | 8768 ft | 345 kts | 329° |
| 2026-04-22 09:33 | 55.65587 | -3.59111 | 8068 ft | 341 kts | 329° |
| 2026-04-22 09:34 | 55.67594 | -3.61309 | 7402 ft | 337 kts | 329° |
| 2026-04-22 09:34 | 55.69575 | -3.63481 | 6747 ft | 332 kts | 330° |
| 2026-04-22 09:34 | 55.71498 | -3.65594 | 6109 ft | 327 kts | 329° |
| 2026-04-22 09:35 | 55.75321 | -3.69798 | 4820 ft | 318 kts | 330° |
| 2026-04-22 09:35 | 55.77187 | -3.71855 | 4253 ft | 312 kts | 330° |
| 2026-04-22 09:35 | 55.79049 | -3.73568 | 4017 ft | 290 kts | 348° |
| 2026-04-22 09:35 | 55.80924 | -3.73525 | 4001 ft | 258 kts | 24° |
| 2026-04-22 09:36 | 55.82421 | -3.71908 | 4001 ft | 252 kts | 44° |
| 2026-04-22 09:36 | 55.83662 | -3.69752 | 3990 ft | 247 kts | 52° |
| 2026-04-22 09:36 | 55.84740 | -3.67407 | 3907 ft | 242 kts | 56° |
| 2026-04-22 09:36 | 55.85644 | -3.65048 | 3645 ft | 218 kts | 61° |
| 2026-04-22 09:37 | 55.86386 | -3.62852 | 3360 ft | 196 kts | 61° |
| 2026-04-22 09:37 | 55.87046 | -3.60872 | 3105 ft | 176 kts | 61° |
| 2026-04-22 09:37 | 55.87643 | -3.59088 | 2875 ft | 160 kts | 61° |
| 2026-04-22 09:37 | 55.88195 | -3.57442 | 2635 ft | 150 kts | 61° |
| 2026-04-22 09:38 | 55.88708 | -3.55911 | 2465 ft | 147 kts | 61° |
| 2026-04-22 09:38 | 55.89230 | -3.54357 | 2276 ft | 144 kts | 60° |
| 2026-04-22 09:38 | 55.89719 | -3.52905 | 2089 ft | 129 kts | 60° |
| 2026-04-22 09:38 | 55.90174 | -3.51557 | 1899 ft | 126 kts | 60° |
| 2026-04-22 09:39 | 55.90630 | -3.50200 | 1712 ft | 127 kts | 60° |
| 2026-04-22 09:39 | 55.91076 | -3.48874 | 1542 ft | 122 kts | 60° |
| 2026-04-22 09:39 | 55.91519 | -3.47560 | 1378 ft | 124 kts | 62° |
| 2026-04-22 09:39 | 55.91968 | -3.46222 | 1186 ft | 127 kts | 60° |
| 2026-04-22 09:40 | 55.92423 | -3.44877 | 991 ft | 123 kts | 60° |
| 2026-04-22 09:40 | 55.92867 | -3.43564 | 819 ft | 126 kts | 58° |
| 2026-04-22 09:40 | 55.93315 | -3.42235 | 642 ft | 124 kts | 59° |
| 2026-04-22 09:40 | 55.93762 | -3.40913 | 420 ft | 121 kts | 58° |
| 2026-04-22 09:41 | 55.94188 | -3.39624 | 255 ft | 121 kts | 58° |
| 2026-04-22 09:41 | 55.94632 | -3.38335 | 121 ft | 123 kts | 57° |
| 2026-04-22 09:41 | 55.95023 | -3.37181 | 110 ft | 88 kts | 58° |
| 2026-04-22 09:41 | 55.95224 | -3.36587 | 111 ft | 36 kts | 58° |
| 2026-04-22 09:42 | 55.95226 | -3.36393 | 112 ft | 0 kts | 147° |
| 2026-04-22 09:43 | 55.95211 | -3.36376 | 112 ft | 8 kts | 147° |
| 2026-04-22 09:43 | 55.95151 | -3.36286 | 115 ft | 15 kts | 120° |
| 2026-04-22 09:43 | 55.95113 | -3.36084 | 115 ft | 20 kts | 98° |
| 2026-04-22 09:43 | 55.95046 | -3.35855 | 114 ft | 23 kts | 142° |
| 2026-04-22 09:44 | 55.94917 | -3.35799 | 111 ft | 14 kts | 124° |
| 2026-04-22 09:44 | 55.94855 | -3.35783 | 115 ft | 0 kts | 209° |
| 2026-04-22 09:44 | 55.94839 | -3.35801 | 112 ft | 1 kts | 210° |
| 2026-04-22 09:44 | 55.94831 | -3.35809 | 113 ft | 0 kts | 209° |